createdAt,value
2023-02-26T00:00:42.966Z,-0.96
2023-02-26T00:01:43.027Z,-0.96
2023-02-26T00:02:42.953Z,-0.96
2023-02-26T00:03:42.933Z,-0.94
2023-02-26T00:04:42.925Z,-0.94
2023-02-26T00:05:42.913Z,-0.94
2023-02-26T00:06:42.892Z,-0.94
2023-02-26T00:07:42.891Z,-0.96
2023-02-26T00:08:42.852Z,-0.96
2023-02-26T00:09:42.864Z,-0.94
2023-02-26T00:10:42.841Z,-0.96
2023-02-26T00:11:42.915Z,-0.94
2023-02-26T00:12:42.833Z,-0.94
2023-02-26T00:13:42.791Z,-0.96
2023-02-26T00:14:42.823Z,-0.96
2023-02-26T00:15:42.780Z,-0.96
2023-02-26T00:16:42.788Z,-0.96
2023-02-26T00:17:42.748Z,-0.96
2023-02-26T00:18:42.730Z,-0.94
2023-02-26T00:19:42.732Z,-0.96
2023-02-26T00:20:42.698Z,-0.96
2023-02-26T00:21:42.696Z,-0.96
2023-02-26T00:22:42.680Z,-0.96
2023-02-26T00:23:42.675Z,-0.96
2023-02-26T00:24:42.687Z,-0.96
2023-02-26T00:25:42.642Z,-0.96
2023-02-26T00:26:42.622Z,-0.96
2023-02-26T00:27:42.616Z,-0.96
2023-02-26T00:28:42.673Z,-0.96
2023-02-26T00:29:42.615Z,-0.94
2023-02-26T00:30:42.607Z,-0.96
2023-02-26T00:31:42.721Z,-0.96
2023-02-26T00:32:42.588Z,-0.97
2023-02-26T00:33:42.536Z,-0.96
2023-02-26T00:34:42.563Z,-0.97
2023-02-26T00:35:42.518Z,-0.97
2023-02-26T00:36:42.517Z,-0.97
2023-02-26T00:37:42.486Z,-0.99
2023-02-26T00:38:42.478Z,-0.99
2023-02-26T00:39:42.475Z,-1.01
2023-02-26T00:40:42.503Z,-1.01
2023-02-26T00:41:42.478Z,-1.01
2023-02-26T00:42:42.422Z,-1.01
2023-02-26T00:43:42.424Z,-1.02
2023-02-26T00:44:42.426Z,-1.04
2023-02-26T00:45:42.438Z,-1.04
2023-02-26T00:46:42.389Z,-1.05
2023-02-26T00:47:42.357Z,-1.05
2023-02-26T00:48:42.354Z,-1.05
2023-02-26T00:49:42.344Z,-1.07
2023-02-26T00:50:42.323Z,-1.07
2023-02-26T00:51:42.325Z,-1.09
2023-02-26T00:52:42.302Z,-1.09
2023-02-26T00:53:42.292Z,-1.08
2023-02-26T00:54:42.284Z,-1.09
2023-02-26T00:55:42.273Z,-1.09
2023-02-26T00:56:42.260Z,-1.11
2023-02-26T00:57:42.250Z,-1.11
2023-02-26T00:58:42.221Z,-1.11
2023-02-26T00:59:42.220Z,-1.12
2023-02-26T01:00:42.191Z,-1.12
2023-02-26T01:01:42.210Z,-1.14
2023-02-26T01:02:42.189Z,-1.14
2023-02-26T01:03:42.245Z,-1.14
2023-02-26T01:04:42.185Z,-1.14
2023-02-26T01:05:42.181Z,-1.14
2023-02-26T01:06:42.129Z,-1.12
2023-02-26T01:07:42.102Z,-1.12
2023-02-26T01:08:42.093Z,-1.14
2023-02-26T01:09:42.099Z,-1.14
2023-02-26T01:10:42.100Z,-1.14
2023-02-26T01:11:42.056Z,-1.14
2023-02-26T01:12:49.557Z,-1.14
2023-02-26T01:13:42.016Z,-1.15
2023-02-26T01:14:42.025Z,-1.12
2023-02-26T01:15:42.053Z,-1.15
2023-02-26T01:16:41.996Z,-1.12
2023-02-26T01:17:41.965Z,-1.14
2023-02-26T01:18:41.969Z,-1.15
2023-02-26T01:19:41.964Z,-1.17
2023-02-26T01:20:41.946Z,-1.15
2023-02-26T01:21:41.914Z,-1.15
2023-02-26T01:22:41.920Z,-1.15
2023-02-26T01:23:41.901Z,-1.17
2023-02-26T01:24:41.932Z,-1.14
2023-02-26T01:25:41.873Z,-1.15
2023-02-26T01:26:41.866Z,-1.17
2023-02-26T01:27:41.851Z,-1.19
2023-02-26T01:28:41.851Z,-1.17
2023-02-26T01:29:41.848Z,-1.19
2023-02-26T01:30:41.812Z,-1.17
2023-02-26T01:31:41.946Z,-1.19
2023-02-26T01:32:41.866Z,-1.20
2023-02-26T01:33:41.774Z,-1.19
2023-02-26T01:34:41.763Z,-1.19
2023-02-26T01:35:41.775Z,-1.19
2023-02-26T01:36:41.761Z,-1.20
2023-02-26T01:37:41.723Z,-1.22
2023-02-26T01:38:41.764Z,-1.22
2023-02-26T01:39:41.690Z,-1.23
2023-02-26T01:40:41.723Z,-1.20
2023-02-26T01:41:41.669Z,-1.22
2023-02-26T01:42:41.713Z,-1.22
2023-02-26T01:43:41.640Z,-1.23
2023-02-26T01:44:41.631Z,-1.25
2023-02-26T01:45:41.636Z,-1.25
2023-02-26T01:46:41.682Z,-1.23
2023-02-26T01:47:41.605Z,-1.26
2023-02-26T01:48:41.580Z,-1.25
2023-02-26T01:49:41.569Z,-1.26
2023-02-26T01:50:41.573Z,-1.26
2023-02-26T01:51:41.546Z,-1.27
2023-02-26T01:52:41.555Z,-1.27
2023-02-26T01:53:41.515Z,-1.27
2023-02-26T01:54:41.517Z,-1.29
2023-02-26T01:55:41.514Z,-1.29
2023-02-26T01:56:41.494Z,-1.27
2023-02-26T01:57:41.470Z,-1.27
2023-02-26T01:58:41.459Z,-1.29
2023-02-26T01:59:41.438Z,-1.29
2023-02-26T02:00:41.518Z,-1.27
2023-02-26T02:01:41.426Z,-1.29
2023-02-26T02:02:41.513Z,-1.29
2023-02-26T02:03:41.403Z,-1.29
2023-02-26T02:04:41.388Z,-1.29
2023-02-26T02:05:41.386Z,-1.29
2023-02-26T02:06:41.359Z,-1.29
2023-02-26T02:07:41.358Z,-1.29
2023-02-26T02:08:41.357Z,-1.29
2023-02-26T02:09:41.316Z,-1.30
2023-02-26T02:10:41.335Z,-1.29
2023-02-26T02:11:41.286Z,-1.30
2023-02-26T02:12:41.283Z,-1.29
2023-02-26T02:13:41.275Z,-1.29
2023-02-26T02:14:41.252Z,-1.27
2023-02-26T02:15:41.272Z,-1.27
2023-02-26T02:16:41.247Z,-1.26
2023-02-26T02:17:41.219Z,-1.27
2023-02-26T02:18:41.224Z,-1.27
2023-02-26T02:19:41.201Z,-1.25
2023-02-26T02:20:41.208Z,-1.26
2023-02-26T02:21:41.171Z,-1.26
2023-02-26T02:22:41.154Z,-1.26
2023-02-26T02:23:41.143Z,-1.25
2023-02-26T02:24:41.128Z,-1.26
2023-02-26T02:25:41.138Z,-1.25
2023-02-26T02:26:41.103Z,-1.25
2023-02-26T02:27:41.084Z,-1.25
2023-02-26T02:28:41.084Z,-1.23
2023-02-26T02:29:41.056Z,-1.23
2023-02-26T02:30:41.058Z,-1.25
2023-02-26T02:31:41.205Z,-1.22
2023-02-26T02:32:41.097Z,-1.23
2023-02-26T02:33:41.018Z,-1.23
2023-02-26T02:34:40.981Z,-1.20
2023-02-26T02:35:41.016Z,-1.19
2023-02-26T02:36:41.010Z,-1.19
2023-02-26T02:37:40.950Z,-1.19
2023-02-26T02:38:40.963Z,-1.19
2023-02-26T02:39:40.932Z,-1.19
2023-02-26T02:40:40.922Z,-1.19
2023-02-26T02:41:40.917Z,-1.19
2023-02-26T02:42:40.934Z,-1.15
2023-02-26T02:43:40.880Z,-1.17
2023-02-26T02:44:40.868Z,-1.17
2023-02-26T02:45:40.932Z,-1.15
2023-02-26T02:46:40.885Z,-1.15
2023-02-26T02:47:40.843Z,-1.14
2023-02-26T02:48:40.845Z,-1.14
2023-02-26T02:49:40.812Z,-1.12
2023-02-26T02:50:40.842Z,-1.12
2023-02-26T02:51:40.807Z,-1.12
2023-02-26T02:52:40.812Z,-1.11
2023-02-26T02:53:40.753Z,-1.11
2023-02-26T02:54:40.747Z,-1.11
2023-02-26T02:55:40.771Z,-1.09
2023-02-26T02:56:40.749Z,-1.09
2023-02-26T02:57:40.750Z,-1.09
2023-02-26T02:58:40.693Z,-1.08
2023-02-26T02:59:40.759Z,-1.09
2023-02-26T03:00:40.719Z,-1.08
2023-02-26T03:01:40.664Z,-1.09
2023-02-26T03:02:40.718Z,-1.07
2023-02-26T03:03:40.628Z,-1.08
2023-02-26T03:04:40.620Z,-1.07
2023-02-26T03:05:40.598Z,-1.05
2023-02-26T03:06:40.596Z,-1.05
2023-02-26T03:07:40.576Z,-1.05
2023-02-26T03:08:40.557Z,-1.07
2023-02-26T03:09:40.555Z,-1.05
2023-02-26T03:10:40.535Z,-1.05
2023-02-26T03:11:40.537Z,-1.02
2023-02-26T03:12:40.529Z,-1.04
2023-02-26T03:13:40.497Z,-1.01
2023-02-26T03:14:40.505Z,-1.02
2023-02-26T03:15:40.483Z,-1.02
2023-02-26T03:16:40.514Z,-1.02
2023-02-26T03:17:40.466Z,-0.99
2023-02-26T03:18:40.440Z,-1.01
2023-02-26T03:19:40.427Z,-0.99
2023-02-26T03:20:40.416Z,-0.97
2023-02-26T03:21:40.415Z,-0.99
2023-02-26T03:22:40.413Z,-0.99
2023-02-26T03:23:40.429Z,-0.97
2023-02-26T03:24:40.385Z,-0.96
2023-02-26T03:25:40.336Z,-0.96
2023-02-26T03:26:40.364Z,-0.99
2023-02-26T03:27:40.335Z,-0.94
2023-02-26T03:28:40.342Z,-0.97
2023-02-26T03:29:40.287Z,-0.94
2023-02-26T03:30:40.388Z,-0.94
2023-02-26T03:31:40.462Z,-0.94
2023-02-26T03:32:40.383Z,-0.93
2023-02-26T03:33:40.259Z,-0.94
2023-02-26T03:34:40.247Z,-0.94
2023-02-26T03:35:40.656Z,-0.93
2023-02-26T03:36:40.222Z,-0.93
2023-02-26T03:37:40.192Z,-0.94
2023-02-26T03:38:40.210Z,-0.91
2023-02-26T03:39:40.209Z,-0.91
2023-02-26T03:40:47.685Z,-0.91
2023-02-26T03:41:40.156Z,-0.91
2023-02-26T03:42:40.134Z,-0.90
2023-02-26T03:43:40.981Z,-0.91
2023-02-26T03:44:40.110Z,-0.91
2023-02-26T03:45:40.139Z,-0.90
2023-02-26T03:46:40.092Z,-0.90
2023-02-26T03:47:40.081Z,-0.90
2023-02-26T03:48:40.125Z,-0.89
2023-02-26T03:49:40.049Z,-0.89
2023-02-26T03:50:40.046Z,-0.86
2023-02-26T03:51:40.028Z,-0.86
2023-02-26T03:52:40.022Z,-0.89
2023-02-26T03:53:39.995Z,-0.89
2023-02-26T03:54:39.979Z,-0.89
2023-02-26T03:55:39.977Z,-0.86
2023-02-26T03:56:39.977Z,-0.85
2023-02-26T03:57:39.930Z,-0.85
2023-02-26T03:58:39.931Z,-0.83
2023-02-26T03:59:39.917Z,-0.86
2023-02-26T04:00:42.739Z,-0.83
2023-02-26T04:01:39.920Z,-0.86
2023-02-26T04:02:39.919Z,-0.83
2023-02-26T04:03:39.867Z,-0.82
2023-02-26T04:04:39.906Z,-0.83
2023-02-26T04:05:39.828Z,-0.80
2023-02-26T04:06:39.856Z,-0.80
2023-02-26T04:07:39.823Z,-0.82
2023-02-26T04:08:39.814Z,-0.80
2023-02-26T04:09:39.775Z,-0.80
2023-02-26T04:10:39.770Z,-0.78
2023-02-26T04:11:39.772Z,-0.78
2023-02-26T04:12:39.744Z,-0.78
2023-02-26T04:13:39.762Z,-0.78
2023-02-26T04:14:39.723Z,-0.80
2023-02-26T04:15:39.713Z,-0.80
2023-02-26T04:16:39.752Z,-0.78
2023-02-26T04:17:39.685Z,-0.78
2023-02-26T04:18:39.675Z,-0.77
2023-02-26T04:19:39.656Z,-0.77
2023-02-26T04:20:39.644Z,-0.77
2023-02-26T04:21:39.644Z,-0.77
2023-02-26T04:22:39.620Z,-0.75
2023-02-26T04:23:39.611Z,-0.77
2023-02-26T04:24:39.600Z,-0.77
2023-02-26T04:25:39.588Z,-0.74
2023-02-26T04:26:39.589Z,-0.75
2023-02-26T04:27:39.555Z,-0.74
2023-02-26T04:28:39.550Z,-0.75
2023-02-26T04:29:39.547Z,-0.74
2023-02-26T04:30:39.619Z,-0.74
2023-02-26T04:31:39.550Z,-0.74
2023-02-26T04:32:39.539Z,-0.74
2023-02-26T04:33:39.475Z,-0.74
2023-02-26T04:34:39.466Z,-0.74
2023-02-26T04:35:39.461Z,-0.72
2023-02-26T04:36:39.505Z,-0.74
2023-02-26T04:37:39.425Z,-0.74
2023-02-26T04:38:39.424Z,-0.71
2023-02-26T04:39:39.410Z,-0.71
2023-02-26T04:40:39.398Z,-0.72
2023-02-26T04:41:39.388Z,-0.71
2023-02-26T04:42:39.375Z,-0.72
2023-02-26T04:43:39.356Z,-0.72
2023-02-26T04:44:39.338Z,-0.71
2023-02-26T04:45:39.328Z,-0.71
2023-02-26T04:46:39.414Z,-0.70
2023-02-26T04:47:39.300Z,-0.70
2023-02-26T04:48:39.297Z,-0.70
2023-02-26T04:49:39.276Z,-0.71
2023-02-26T04:50:39.259Z,-0.70
2023-02-26T04:51:39.279Z,-0.70
2023-02-26T04:52:39.234Z,-0.70
2023-02-26T04:53:39.228Z,-0.70
2023-02-26T04:54:39.205Z,-0.71
2023-02-26T04:55:39.212Z,-0.70
2023-02-26T04:56:39.205Z,-0.70
2023-02-26T04:57:39.175Z,-0.68
2023-02-26T04:58:39.175Z,-0.70
2023-02-26T04:59:39.163Z,-0.68
2023-02-26T05:00:39.132Z,-0.68
2023-02-26T05:01:39.196Z,-0.68
2023-02-26T05:02:39.107Z,-0.68
2023-02-26T05:03:39.100Z,-0.68
2023-02-26T05:04:39.126Z,-0.67
2023-02-26T05:05:39.077Z,-0.68
2023-02-26T05:06:39.077Z,-0.68
2023-02-26T05:07:39.143Z,-0.68
2023-02-26T05:08:39.053Z,-0.67
2023-02-26T05:09:39.037Z,-0.67
2023-02-26T05:10:39.016Z,-0.65
2023-02-26T05:11:39.024Z,-0.68
2023-02-26T05:12:38.996Z,-0.68
2023-02-26T05:13:38.974Z,-0.65
2023-02-26T05:14:38.999Z,-0.67
2023-02-26T05:15:38.954Z,-0.65
2023-02-26T05:16:38.955Z,-0.65
2023-02-26T05:17:38.943Z,-0.65
2023-02-26T05:18:38.925Z,-0.65
2023-02-26T05:19:38.957Z,-0.64
2023-02-26T05:20:38.879Z,-0.65
2023-02-26T05:21:38.952Z,-0.65
2023-02-26T05:22:38.863Z,-0.65
2023-02-26T05:23:38.864Z,-0.65
2023-02-26T05:24:38.836Z,-0.65
2023-02-26T05:25:38.834Z,-0.65
2023-02-26T05:26:38.842Z,-0.65
2023-02-26T05:27:38.814Z,-0.67
2023-02-26T05:28:38.790Z,-0.65
2023-02-26T05:29:38.779Z,-0.67
2023-02-26T05:30:38.782Z,-0.67
2023-02-26T05:31:38.830Z,-0.68
2023-02-26T05:32:38.740Z,-0.68
2023-02-26T05:33:38.732Z,-0.68
2023-02-26T05:34:38.708Z,-0.70
2023-02-26T05:35:46.238Z,-0.71
2023-02-26T05:36:38.696Z,-0.71
2023-02-26T05:37:46.208Z,-0.71
2023-02-26T05:38:46.173Z,-0.71
2023-02-26T05:39:46.186Z,-0.72
2023-02-26T05:40:38.639Z,-0.71
2023-02-26T05:41:38.644Z,-0.72
2023-02-26T05:42:38.604Z,-0.74
2023-02-26T05:43:38.603Z,-0.74
2023-02-26T05:44:38.572Z,-0.75
2023-02-26T05:45:38.579Z,-0.75
2023-02-26T05:46:47.290Z,-0.78
2023-02-26T05:47:38.566Z,-0.77
2023-02-26T05:48:38.530Z,-0.78
2023-02-26T05:49:38.519Z,-0.82
2023-02-26T05:50:38.527Z,-0.80
2023-02-26T05:51:38.526Z,-0.85
2023-02-26T05:52:38.501Z,-0.86
2023-02-26T05:53:38.478Z,-0.86
2023-02-26T05:54:38.454Z,-0.89
2023-02-26T05:55:38.456Z,-0.89
2023-02-26T05:56:38.450Z,-0.90
2023-02-26T05:57:38.411Z,-0.91
2023-02-26T05:58:38.417Z,-0.90
2023-02-26T05:59:38.405Z,-0.93
2023-02-26T06:00:38.385Z,-0.93
2023-02-26T06:01:38.524Z,-0.91
2023-02-26T06:02:38.386Z,-0.94
2023-02-26T06:03:38.346Z,-0.96
2023-02-26T06:04:38.332Z,-0.96
2023-02-26T06:05:38.323Z,-0.94
2023-02-26T06:06:38.315Z,-0.96
2023-02-26T06:07:38.313Z,-0.97
2023-02-26T06:08:38.265Z,-0.99
2023-02-26T06:09:38.263Z,-0.99
2023-02-26T06:10:38.232Z,-0.99
2023-02-26T06:11:38.250Z,-1.01
2023-02-26T06:12:38.246Z,-1.01
2023-02-26T06:13:38.210Z,-1.04
2023-02-26T06:14:38.194Z,-1.04
2023-02-26T06:15:38.187Z,-1.05
2023-02-26T06:16:38.280Z,-1.05
2023-02-26T06:17:40.583Z,-1.07
2023-02-26T06:18:38.150Z,-1.05
2023-02-26T06:19:38.149Z,-1.07
2023-02-26T06:20:38.127Z,-1.07
2023-02-26T06:21:38.108Z,-1.07
2023-02-26T06:22:38.164Z,-1.08
2023-02-26T06:23:38.085Z,-1.08
2023-02-26T06:24:38.079Z,-1.09
2023-02-26T06:25:38.069Z,-1.08
2023-02-26T06:26:38.038Z,-1.09
2023-02-26T06:27:38.046Z,-1.09
2023-02-26T06:28:38.052Z,-1.09
2023-02-26T06:29:38.010Z,-1.09
2023-02-26T06:30:38.133Z,-1.11
2023-02-26T06:31:38.043Z,-1.08
2023-02-26T06:32:38.050Z,-1.11
2023-02-26T06:33:37.958Z,-1.09
2023-02-26T06:34:37.941Z,-1.11
2023-02-26T06:35:37.957Z,-1.09
2023-02-26T06:36:37.911Z,-1.09
2023-02-26T06:37:37.939Z,-1.11
2023-02-26T06:38:37.888Z,-1.12
2023-02-26T06:39:37.889Z,-1.11
2023-02-26T06:40:37.874Z,-1.12
2023-02-26T06:41:37.862Z,-1.11
2023-02-26T06:42:37.850Z,-1.14
2023-02-26T06:43:37.833Z,-1.12
2023-02-26T06:44:37.809Z,-1.12
2023-02-26T06:45:37.831Z,-1.11
2023-02-26T06:46:37.789Z,-1.11
2023-02-26T06:47:37.792Z,-1.11
2023-02-26T06:48:37.768Z,-1.11
2023-02-26T06:49:37.759Z,-1.09
2023-02-26T06:50:37.738Z,-1.05
2023-02-26T06:51:37.730Z,-1.01
2023-02-26T06:52:37.737Z,-0.94
2023-02-26T06:53:37.731Z,-0.89
2023-02-26T06:54:37.699Z,-0.80
2023-02-26T06:55:37.689Z,-0.72
2023-02-26T06:56:37.668Z,-0.67
2023-02-26T06:57:37.672Z,-0.61
2023-02-26T06:58:37.660Z,-0.54
2023-02-26T06:59:37.647Z,-0.46
2023-02-26T07:00:37.627Z,-0.36
2023-02-26T07:01:37.621Z,-0.28
2023-02-26T07:02:37.651Z,-0.15
2023-02-26T07:03:37.604Z,-0.10
2023-02-26T07:04:37.565Z,-0.02
2023-02-26T07:05:37.574Z,0.07
2023-02-26T07:06:37.545Z,0.16
2023-02-26T07:07:37.542Z,0.25
2023-02-26T07:08:37.512Z,0.32
2023-02-26T07:09:37.517Z,0.39
2023-02-26T07:10:37.494Z,0.46
2023-02-26T07:11:37.480Z,0.52
2023-02-26T07:12:37.489Z,0.58
2023-02-26T07:13:37.456Z,0.63
2023-02-26T07:14:37.441Z,0.68
2023-02-26T07:15:37.432Z,0.77
2023-02-26T07:16:37.438Z,0.83
2023-02-26T07:17:37.416Z,0.94
2023-02-26T07:18:37.431Z,0.99
2023-02-26T07:19:37.372Z,1.08
2023-02-26T07:20:37.360Z,1.16
2023-02-26T07:21:37.362Z,1.23
2023-02-26T07:22:37.366Z,1.30
2023-02-26T07:23:37.320Z,1.35
2023-02-26T07:24:37.307Z,1.44
2023-02-26T07:25:37.352Z,1.52
2023-02-26T07:26:37.300Z,1.58
2023-02-26T07:27:37.287Z,1.66
2023-02-26T07:28:37.246Z,1.70
2023-02-26T07:29:37.249Z,1.77
2023-02-26T07:30:37.311Z,1.85
2023-02-26T07:31:37.394Z,1.92
2023-02-26T07:32:37.215Z,1.99
2023-02-26T07:33:37.185Z,2.08
2023-02-26T07:34:37.207Z,2.13
2023-02-26T07:35:37.171Z,2.17
2023-02-26T07:36:37.165Z,2.22
2023-02-26T07:37:37.144Z,2.31
2023-02-26T07:38:37.127Z,2.38
2023-02-26T07:39:37.111Z,2.49
2023-02-26T07:40:37.107Z,2.60
2023-02-26T07:41:37.092Z,2.67
2023-02-26T07:42:37.087Z,2.77
2023-02-26T07:43:37.074Z,2.86
2023-02-26T07:44:37.029Z,2.95
2023-02-26T07:45:37.031Z,3.01
2023-02-26T07:46:37.061Z,3.10
2023-02-26T07:47:37.021Z,3.18
2023-02-26T07:48:36.996Z,3.25
2023-02-26T07:49:36.978Z,3.31
2023-02-26T07:50:36.959Z,3.36
2023-02-26T07:51:36.950Z,3.44
2023-02-26T07:52:36.949Z,3.50
2023-02-26T07:53:36.950Z,3.56
2023-02-26T07:54:36.906Z,3.60
2023-02-26T07:55:36.902Z,3.69
2023-02-26T07:56:36.901Z,3.77
2023-02-26T07:57:36.905Z,3.83
2023-02-26T07:58:36.870Z,3.87
2023-02-26T07:59:36.865Z,3.96
2023-02-26T08:00:36.831Z,4.02
2023-02-26T08:01:36.881Z,4.10
2023-02-26T08:02:36.838Z,4.13
2023-02-26T08:03:36.806Z,4.13
2023-02-26T08:04:36.821Z,4.14
2023-02-26T08:05:36.765Z,4.19
2023-02-26T08:06:36.766Z,4.26
2023-02-26T08:07:36.752Z,4.34
2023-02-26T08:08:36.719Z,4.41
2023-02-26T08:09:36.714Z,4.49
2023-02-26T08:10:36.713Z,4.58
2023-02-26T08:11:36.704Z,4.66
2023-02-26T08:12:36.723Z,4.73
2023-02-26T08:13:36.661Z,4.78
2023-02-26T08:14:36.643Z,4.89
2023-02-26T08:15:36.669Z,4.94
2023-02-26T08:16:36.621Z,4.99
2023-02-26T08:17:36.659Z,5.07
2023-02-26T08:18:36.609Z,5.12
2023-02-26T08:19:36.617Z,5.14
2023-02-26T08:20:36.568Z,5.15
2023-02-26T08:21:36.592Z,5.20
2023-02-26T08:22:36.562Z,5.25
2023-02-26T08:23:36.556Z,5.33
2023-02-26T08:24:36.530Z,5.39
2023-02-26T08:25:36.510Z,5.46
2023-02-26T08:26:36.508Z,5.51
2023-02-26T08:27:36.518Z,5.59
2023-02-26T08:28:36.470Z,5.66
2023-02-26T08:29:36.459Z,5.79
2023-02-26T08:30:36.527Z,5.89
2023-02-26T08:31:36.487Z,5.99
2023-02-26T08:32:36.481Z,6.12
2023-02-26T08:33:36.408Z,6.28
2023-02-26T08:34:36.395Z,6.45
2023-02-26T08:35:36.384Z,6.62
2023-02-26T08:36:36.368Z,6.72
2023-02-26T08:37:36.366Z,6.84
2023-02-26T08:38:36.335Z,6.95
2023-02-26T08:39:36.325Z,7.03
2023-02-26T08:40:36.306Z,7.13
2023-02-26T08:41:36.319Z,7.21
2023-02-26T08:42:36.376Z,7.31
2023-02-26T08:43:36.273Z,7.39
2023-02-26T08:44:36.264Z,7.43
2023-02-26T08:45:36.245Z,7.50
2023-02-26T08:46:36.300Z,7.51
2023-02-26T08:47:39.589Z,7.47
2023-02-26T08:48:37.212Z,7.51
2023-02-26T08:49:36.185Z,7.56
2023-02-26T08:50:36.208Z,7.67
2023-02-26T08:51:36.164Z,7.75
2023-02-26T08:52:36.177Z,7.82
2023-02-26T08:53:36.163Z,7.91
2023-02-26T08:54:36.126Z,7.98
2023-02-26T08:55:36.127Z,8.05
2023-02-26T08:56:36.106Z,8.12
2023-02-26T08:57:36.164Z,8.19
2023-02-26T08:58:36.125Z,8.27
2023-02-26T08:59:36.164Z,8.34
2023-02-26T09:00:36.338Z,8.41
2023-02-26T09:01:36.178Z,8.46
2023-02-26T09:02:36.089Z,8.53
2023-02-26T09:03:36.038Z,8.61
2023-02-26T09:04:36.005Z,8.67
2023-02-26T09:05:36.006Z,8.74
2023-02-26T09:06:36.001Z,8.84
2023-02-26T09:07:35.974Z,8.88
2023-02-26T09:08:35.970Z,8.94
2023-02-26T09:09:35.940Z,9.02
2023-02-26T09:10:35.938Z,9.06
2023-02-26T09:11:35.912Z,9.13
2023-02-26T09:12:35.907Z,9.21
2023-02-26T09:13:35.944Z,9.28
2023-02-26T09:14:35.881Z,9.36
2023-02-26T09:15:35.886Z,9.41
2023-02-26T09:16:35.866Z,9.48
2023-02-26T09:17:35.843Z,9.54
2023-02-26T09:18:35.821Z,9.59
2023-02-26T09:19:36.039Z,9.65
2023-02-26T09:20:35.834Z,9.69
2023-02-26T09:21:35.795Z,9.77
2023-02-26T09:22:35.781Z,9.83
2023-02-26T09:23:35.750Z,9.89
2023-02-26T09:24:35.749Z,9.92
2023-02-26T09:25:35.732Z,9.99
2023-02-26T09:26:35.722Z,10.04
2023-02-26T09:27:35.753Z,10.12
2023-02-26T09:28:35.710Z,10.17
2023-02-26T09:29:35.679Z,10.23
2023-02-26T09:30:35.706Z,10.30
2023-02-26T09:31:35.819Z,10.34
2023-02-26T09:32:35.682Z,10.42
2023-02-26T09:33:35.628Z,10.51
2023-02-26T09:34:35.617Z,10.46
2023-02-26T09:35:35.616Z,10.54
2023-02-26T09:36:35.597Z,10.61
2023-02-26T09:37:35.585Z,10.71
2023-02-26T09:38:35.547Z,10.74
2023-02-26T09:39:35.558Z,10.71
2023-02-26T09:40:35.558Z,10.75
2023-02-26T09:41:35.537Z,10.86
2023-02-26T09:42:35.508Z,10.97
2023-02-26T09:43:35.535Z,11.00
2023-02-26T09:44:35.477Z,10.92
2023-02-26T09:45:35.503Z,10.96
2023-02-26T09:46:35.477Z,11.04
2023-02-26T09:47:35.444Z,11.12
2023-02-26T09:48:35.418Z,11.22
2023-02-26T09:49:35.406Z,11.18
2023-02-26T09:50:35.406Z,11.23
2023-02-26T09:51:35.396Z,11.32
2023-02-26T09:52:35.385Z,11.43
2023-02-26T09:53:35.378Z,11.52
2023-02-26T09:55:28.023Z,11.73
2023-02-26T09:56:28.332Z,11.80
2023-02-26T09:57:27.978Z,11.87
2023-02-26T09:58:27.971Z,12.00
2023-02-26T09:59:27.956Z,12.10
2023-02-26T10:00:27.945Z,12.20
2023-02-26T10:01:27.996Z,12.28
2023-02-26T10:02:27.911Z,12.37
2023-02-26T10:03:27.908Z,12.45
2023-02-26T10:04:28.000Z,12.54
2023-02-26T10:05:27.891Z,12.64
2023-02-26T10:06:28.368Z,12.73
2023-02-26T10:07:27.858Z,12.80
2023-02-26T10:08:27.838Z,12.86
2023-02-26T10:09:27.836Z,12.95
2023-02-26T10:10:27.821Z,13.04
2023-02-26T10:11:27.815Z,13.13
2023-02-26T10:12:27.776Z,13.20
2023-02-26T10:13:27.775Z,13.28
2023-02-26T10:14:27.771Z,13.35
2023-02-26T10:15:27.764Z,13.42
2023-02-26T10:16:28.058Z,13.47
2023-02-26T10:17:27.730Z,13.56
2023-02-26T10:18:27.709Z,13.62
2023-02-26T10:19:27.699Z,13.68
2023-02-26T10:20:27.759Z,13.74
2023-02-26T10:21:27.690Z,13.81
2023-02-26T10:22:27.669Z,13.89
2023-02-26T10:23:27.654Z,13.74
2023-02-26T10:24:27.635Z,13.72
2023-02-26T10:25:27.615Z,13.77
2023-02-26T10:26:27.984Z,13.83
2023-02-26T10:27:27.616Z,13.79
2023-02-26T10:28:27.580Z,13.75
2023-02-26T10:29:27.586Z,13.81
2023-02-26T10:30:27.545Z,13.79
2023-02-26T10:31:28.074Z,13.83
2023-02-26T10:32:27.615Z,13.72
2023-02-26T10:33:27.508Z,13.56
2023-02-26T10:34:27.488Z,13.39
2023-02-26T10:35:27.489Z,13.19
2023-02-26T10:36:27.464Z,12.98
2023-02-26T10:37:27.467Z,12.83
2023-02-26T10:38:27.439Z,12.83
2023-02-26T10:39:27.435Z,12.67
2023-02-26T10:40:27.446Z,12.50
2023-02-26T10:41:27.613Z,12.60
2023-02-26T10:42:27.397Z,12.57
2023-02-26T10:43:27.385Z,12.70
2023-02-26T10:44:27.356Z,12.82
2023-02-26T10:45:27.349Z,12.90
2023-02-26T10:46:27.365Z,12.91
2023-02-26T10:47:27.338Z,12.91
2023-02-26T10:48:27.293Z,13.01
2023-02-26T10:49:27.295Z,13.04
2023-02-26T10:50:27.270Z,13.12
2023-02-26T10:51:27.578Z,13.20
2023-02-26T10:52:27.266Z,13.30
2023-02-26T10:53:27.264Z,13.38
2023-02-26T10:54:27.222Z,13.44
2023-02-26T10:55:27.210Z,13.49
2023-02-26T10:56:27.204Z,13.54
2023-02-26T10:57:27.203Z,13.56
2023-02-26T10:58:27.198Z,13.59
2023-02-26T10:59:27.181Z,13.63
2023-02-26T11:00:27.150Z,13.59
2023-02-26T11:01:27.567Z,13.57
2023-02-26T11:02:27.183Z,13.56
2023-02-26T11:03:27.101Z,13.54
2023-02-26T11:04:27.081Z,13.49
2023-02-26T11:05:27.089Z,13.46
2023-02-26T11:06:27.085Z,13.38
2023-02-26T11:07:27.120Z,13.23
2023-02-26T11:08:27.035Z,13.18
2023-02-26T11:09:27.039Z,13.04
2023-02-26T11:10:27.015Z,12.95
2023-02-26T11:11:27.313Z,12.93
2023-02-26T11:12:27.042Z,12.91
2023-02-26T11:13:26.976Z,12.91
2023-02-26T11:14:29.881Z,12.90
2023-02-26T11:15:26.957Z,12.86
2023-02-26T11:16:26.960Z,12.87
2023-02-26T11:17:26.968Z,12.85
2023-02-26T11:18:26.907Z,12.85
2023-02-26T11:19:26.914Z,12.83
2023-02-26T11:20:26.898Z,12.83
2023-02-26T11:21:27.268Z,12.82
2023-02-26T11:22:26.876Z,12.80
2023-02-26T11:23:26.848Z,12.83
2023-02-26T11:24:26.833Z,12.86
2023-02-26T11:25:26.824Z,12.86
2023-02-26T11:26:26.827Z,12.87
2023-02-26T11:27:26.818Z,12.79
2023-02-26T11:28:26.798Z,12.75
2023-02-26T11:29:26.774Z,12.75
2023-02-26T11:30:26.848Z,12.73
2023-02-26T11:31:27.200Z,12.70
2023-02-26T11:32:26.752Z,12.72
2023-02-26T11:33:26.746Z,12.72
2023-02-26T11:34:26.704Z,12.76
2023-02-26T11:35:26.692Z,12.65
2023-02-26T11:36:26.990Z,12.58
2023-02-26T11:37:26.680Z,12.49
2023-02-26T11:38:26.752Z,12.50
2023-02-26T11:39:26.663Z,12.50
2023-02-26T11:40:26.612Z,12.49
2023-02-26T11:41:27.002Z,12.42
2023-02-26T11:42:26.640Z,12.36
2023-02-26T11:43:26.621Z,12.32
2023-02-26T11:44:26.590Z,12.32
2023-02-26T11:45:26.561Z,12.35
2023-02-26T11:46:26.589Z,12.25
2023-02-26T11:47:26.544Z,12.20
2023-02-26T11:48:26.532Z,12.21
2023-02-26T11:49:26.529Z,12.25
2023-02-26T11:50:26.491Z,12.27
2023-02-26T11:51:26.835Z,12.32
2023-02-26T11:52:26.550Z,12.36
2023-02-26T11:53:26.504Z,12.42
2023-02-26T11:54:26.439Z,12.37
2023-02-26T11:55:26.428Z,12.40
2023-02-26T11:56:26.429Z,12.42
2023-02-26T11:57:26.422Z,12.45
2023-02-26T11:58:26.425Z,12.47
2023-02-26T11:59:26.386Z,12.50
2023-02-26T12:00:26.511Z,12.57
2023-02-26T12:01:26.601Z,12.53
2023-02-26T12:02:26.388Z,12.45
2023-02-26T12:03:26.417Z,12.39
2023-02-26T12:04:27.779Z,12.32
2023-02-26T12:05:26.282Z,12.36
2023-02-26T12:06:26.332Z,12.37
2023-02-26T12:07:26.322Z,12.39
2023-02-26T12:08:26.272Z,12.42
2023-02-26T12:09:26.300Z,12.46
2023-02-26T12:10:26.342Z,12.50
2023-02-26T12:11:26.508Z,12.55
2023-02-26T12:12:26.251Z,12.60
2023-02-26T12:13:26.201Z,12.65
2023-02-26T12:14:26.298Z,12.70
2023-02-26T12:15:26.204Z,12.78
2023-02-26T12:16:26.140Z,12.85
2023-02-26T12:17:26.142Z,12.93
2023-02-26T12:18:26.134Z,13.00
2023-02-26T12:19:26.108Z,13.05
2023-02-26T12:20:26.164Z,13.09
2023-02-26T12:21:26.378Z,13.15
2023-02-26T12:22:26.066Z,13.19
2023-02-26T12:23:26.091Z,13.12
2023-02-26T12:24:26.040Z,13.08
2023-02-26T12:25:26.047Z,12.97
2023-02-26T12:26:26.022Z,12.87
2023-02-26T12:27:26.007Z,12.85
2023-02-26T12:28:26.001Z,12.78
2023-02-26T12:29:25.972Z,12.68
2023-02-26T12:30:25.987Z,12.62
2023-02-26T12:31:26.395Z,12.64
2023-02-26T12:32:26.105Z,12.70
2023-02-26T12:33:25.966Z,12.78
2023-02-26T12:34:25.911Z,12.85
2023-02-26T12:35:25.919Z,12.97
2023-02-26T12:36:27.001Z,13.08
2023-02-26T12:37:25.912Z,13.16
2023-02-26T12:38:25.957Z,13.23
2023-02-26T12:39:25.844Z,13.28
2023-02-26T12:40:25.845Z,13.22
2023-02-26T12:41:26.161Z,13.19
2023-02-26T12:42:25.847Z,13.09
2023-02-26T12:43:25.803Z,12.98
2023-02-26T12:44:25.883Z,12.86
2023-02-26T12:45:25.794Z,12.79
2023-02-26T12:46:25.819Z,12.79
2023-02-26T12:47:25.756Z,12.80
2023-02-26T12:48:25.734Z,12.68
2023-02-26T12:49:25.731Z,12.70
2023-02-26T12:50:25.722Z,12.70
2023-02-26T12:51:26.105Z,12.73
2023-02-26T12:52:25.689Z,12.75
2023-02-26T12:53:25.768Z,12.73
2023-02-26T12:54:25.679Z,12.65
2023-02-26T12:55:25.666Z,12.57
2023-02-26T12:56:25.679Z,12.57
2023-02-26T12:57:25.619Z,12.58
2023-02-26T12:58:25.607Z,12.58